Time;durP1;ratioP1;P1;durP2;ratioP2;P2;SDS_P1;SDS_P2;PMS_P1;PMS_P2;Temp;Humidity;BMP_temperature;BMP_pressure;BME280_temperature;BME280_humidity;BME280_pressure;Samples;Min_cycle;Max_cycle;Signal;HPM_P1;HPM_P2
2021/03/01 00:00:30;;;;;;;;;;;;;;;-3.70;86.39;94248.75;1490675;39;20624;31
2021/03/01 00:01:44;;;;;;;;;;;;;;;-3.70;85.91;94243.53;1427307;39;20251;31
2021/03/01 00:04:22;;;;;;;;;;;;;;;-3.65;85.93;94238.16;1490670;39;20186;31
2021/03/01 00:07:00;;;;;;;;;;;;;;;-3.68;85.50;94241.41;1490037;39;20242;31
2021/03/01 00:09:25;;;;;;;;;;;;;;;-3.80;85.66;94241.94;1436520;39;20288;31
2021/03/01 00:10:28;;;;;;;;;;;;;;;-3.77;85.49;94245.03;1430694;39;20195;31
2021/03/01 00:12:41;;;;;;;;;;;;;;;-3.81;85.97;94242.25;1450015;39;20227;31
2021/03/01 00:13:51;;;;;;;;;;;;;;;-3.80;86.19;94238.56;1429547;39;20247;31
2021/03/01 00:15:04;;;;;;;;;;;;;;;-3.89;86.44;94237.72;1423475;39;20238;31
2021/03/01 00:16:18;;;;;;;;;;;;;;;-3.88;87.16;94239.25;1422360;39;20195;31
2021/03/01 00:17:32;;;;;;;;;;;;;;;-3.82;86.81;94244.09;1442119;39;20229;31
2021/03/01 00:18:36;;;;;;;;;;;;;;;-3.86;86.01;94234.53;1436855;39;22089;31
2021/03/01 00:26:06;;;;;;;;;;;;;;;-3.88;85.51;94234.03;1428863;39;20231;31
2021/03/01 00:27:20;;;;;;;;;;;;;;;-3.85;86.01;94238.69;1433540;39;20254;31
2021/03/01 00:28:34;;;;;;;;;;;;;;;-3.81;85.80;94239.63;1424274;39;21235;31
2021/03/01 00:29:38;;;;;;;;;;;;;;;-3.90;85.37;94238.78;1431233;39;20237;31
2021/03/01 00:32:01;;;;;;;;;;;;;;;-3.89;85.13;94242.94;1437941;39;21071;31
2021/03/01 00:33:14;;;;;;;;;;;;;;;-3.88;85.23;94229.56;1425307;39;20243;31
2021/03/01 00:34:28;;;;;;;;;;;;;;;-3.97;85.42;94236.59;1427062;39;21244;31
2021/03/01 00:35:33;;;;;;;;;;;;;;;-3.92;86.38;94230.47;1429002;39;20337;31
2021/03/01 00:36:34;;;;;;;;;;;;;;;-4.06;86.50;94241.75;1424600;39;20288;31
2021/03/01 00:37:38;;;;;;;;;;;;;;;-4.03;87.19;94229.94;1414517;39;20240;31
2021/03/01 00:38:52;;;;;;;;;;;;;;;-4.00;87.50;94234.56;1423878;39;20179;31
2021/03/01 00:40:06;;;;;;;;;;;;;;;-4.00;86.06;94241.63;1429006;39;20206;31
2021/03/01 00:41:20;;;;;;;;;;;;;;;-3.94;86.02;94237.84;1429470;39;21095;31
2021/03/01 00:42:34;;;;;;;;;;;;;;;-3.96;86.57;94226.91;1427098;39;21218;31
2021/03/01 00:44:59;;;;;;;;;;;;;;;-3.99;87.26;94233.50;1423426;39;20223;31
2021/03/01 00:49:01;;;;;;;;;;;;;;;-4.02;85.84;94233.31;1474146;39;20184;31
2021/03/01 00:50:06;;;;;;;;;;;;;;;-4.03;85.82;94248.22;1441857;39;47423;31
2021/03/01 00:53:38;;;;;;;;;;;;;;;-4.03;86.23;94237.00;1495104;39;20214;31
2021/03/01 00:54:42;;;;;;;;;;;;;;;-3.94;85.02;94243.06;1432887;39;20245;31
2021/03/01 00:55:56;;;;;;;;;;;;;;;-4.04;86.41;94246.66;1426152;39;20253;31
2021/03/01 00:57:01;;;;;;;;;;;;;;;-4.02;85.98;94244.53;1433349;39;20258;31
2021/03/01 00:58:14;;;;;;;;;;;;;;;-3.97;85.63;94241.81;1423299;39;20211;31
2021/03/01 00:59:29;;;;;;;;;;;;;;;-4.08;86.29;94248.34;1427668;39;21197;31
2021/03/01 01:00:32;;;;;;;;;;;;;;;-4.14;85.83;94249.50;1430337;39;20199;31
2021/03/01 01:01:33;;;;;;;;;;;;;;;-4.16;86.45;94247.19;1427690;39;20603;31
2021/03/01 01:06:34;;;;;;;;;;;;;;;-4.09;86.29;94244.16;1423128;39;20316;31
2021/03/01 01:07:48;;;;;;;;;;;;;;;-4.14;86.57;94252.88;1423476;39;21224;31
2021/03/01 01:09:02;;;;;;;;;;;;;;;-4.10;86.18;94242.62;1428966;39;20298;31
2021/03/01 01:10:16;;;;;;;;;;;;;;;-4.16;86.08;94247.19;1425809;39;20233;31
2021/03/01 01:12:44;;;;;;;;;;;;;;;-4.13;85.50;94243.22;1482827;39;20210;31
2021/03/01 01:13:58;;;;;;;;;;;;;;;-4.15;85.69;94242.75;1411797;39;21284;31
2021/03/01 01:15:12;;;;;;;;;;;;;;;-4.20;86.26;94242.88;1423342;39;20231;31
2021/03/01 01:17:44;;;;;;;;;;;;;;;-4.26;86.63;94246.63;1427854;39;20301;31
2021/03/01 01:18:58;;;;;;;;;;;;;;;-4.20;86.49;94243.62;1432251;39;20250;31
2021/03/01 01:20:07;;;;;;;;;;;;;;;-4.24;86.90;94245.28;1428204;39;20277;31
2021/03/01 01:21:20;;;;;;;;;;;;;;;-4.22;86.67;94245.75;1419591;39;20262;31
2021/03/01 01:22:34;;;;;;;;;;;;;;;-4.33;85.91;94234.75;1423801;39;20262;31
2021/03/01 01:23:39;;;;;;;;;;;;;;;-4.26;85.80;94246.63;1434791;39;21254;31
2021/03/01 01:26:20;;;;;;;;;;;;;;;-4.34;86.58;94242.91;1433999;39;20253;31
2021/03/01 01:27:34;;;;;;;;;;;;;;;-4.29;87.00;94236.81;1424340;39;20270;31
2021/03/01 01:28:48;;;;;;;;;;;;;;;-4.31;86.84;94240.44;1431438;39;21163;31
2021/03/01 01:31:23;;;;;;;;;;;;;;;-4.21;86.42;94228.28;1430672;39;20235;31
2021/03/01 01:32:37;;;;;;;;;;;;;;;-4.28;85.96;94233.13;1418222;39;20213;31
2021/03/01 01:33:51;;;;;;;;;;;;;;;-4.27;86.18;94227.59;1404254;40;21267;31
2021/03/01 01:35:05;;;;;;;;;;;;;;;-4.32;86.28;94228.47;1409288;40;20231;31
2021/03/01 01:36:19;;;;;;;;;;;;;;;-4.39;86.78;94230.72;1428128;39;20245;31
2021/03/01 01:37:33;;;;;;;;;;;;;;;-4.39;87.21;94225.53;1434610;39;20245;31
2021/03/01 01:38:47;;;;;;;;;;;;;;;-4.42;86.94;94225.31;1413830;39;20212;31
2021/03/01 01:39:52;;;;;;;;;;;;;;;-4.41;86.79;94226.88;1416793;39;20244;31
2021/03/01 01:41:05;;;;;;;;;;;;;;;-4.50;87.10;94228.63;1429137;39;21633;31
2021/03/01 01:42:19;;;;;;;;;;;;;;;-4.37;87.06;94225.22;1437818;39;20248;31
2021/03/01 01:43:33;;;;;;;;;;;;;;;-4.41;86.45;94226.88;1415507;39;20430;31
2021/03/01 01:44:51;;;;;;;;;;;;;;;-4.45;86.78;94223.28;1418356;39;21660;31
2021/03/01 01:46:05;;;;;;;;;;;;;;;-4.45;87.74;94220.69;1415436;39;20247;31
2021/03/01 01:47:19;;;;;;;;;;;;;;;-4.49;88.14;94217.88;1415816;39;20249;31
2021/03/01 01:48:24;;;;;;;;;;;;;;;-4.54;87.70;94218.00;1434948;39;21131;31
2021/03/01 01:49:37;;;;;;;;;;;;;;;-4.50;87.37;94223.41;1430269;39;20229;31
2021/03/01 01:50:51;;;;;;;;;;;;;;;-4.52;86.57;94218.50;1416269;39;20250;31
2021/03/01 01:51:56;;;;;;;;;;;;;;;-4.58;87.76;94223.03;1424688;39;21390;31
2021/03/01 01:53:09;;;;;;;;;;;;;;;-4.55;86.92;94219.06;1425360;39;20238;31
2021/03/01 01:54:27;;;;;;;;;;;;;;;-4.52;87.58;94225.53;1426728;39;22629;31
2021/03/01 01:55:41;;;;;;;;;;;;;;;-4.57;87.43;94221.94;1422243;39;20243;31
2021/03/01 01:56:55;;;;;;;;;;;;;;;-4.57;87.87;94221.94;1427446;39;20207;31
2021/03/01 01:58:09;;;;;;;;;;;;;;;-4.52;86.77;94220.31;1419203;39;20382;31
2021/03/01 01:59:24;;;;;;;;;;;;;;;-4.54;86.87;94215.37;1426845;39;20325;31
2021/03/01 02:01:56;;;;;;;;;;;;;;;-4.59;88.50;94218.88;1431783;39;21257;31
2021/03/01 02:03:10;;;;;;;;;;;;;;;-4.50;87.85;94211.13;1435589;39;21223;31
2021/03/01 02:05:48;;;;;;;;;;;;;;;-4.63;87.64;94210.09;1478835;39;20587;31
2021/03/01 02:07:02;;;;;;;;;;;;;;;-4.62;87.22;94208.25;1434515;39;20248;31
2021/03/01 02:09:37;;;;;;;;;;;;;;;-4.65;86.78;94203.63;1422403;39;20246;31
2021/03/01 02:10:51;;;;;;;;;;;;;;;-4.61;87.00;94210.59;1411777;39;21178;31
2021/03/01 02:12:06;;;;;;;;;;;;;;;-4.69;87.40;94205.28;1408719;40;20224;31
2021/03/01 02:13:19;;;;;;;;;;;;;;;-4.76;87.50;94210.13;1416612;39;20196;31
2021/03/01 02:14:34;;;;;;;;;;;;;;;-4.80;87.49;94202.09;1433092;39;20222;31
2021/03/01 02:15:47;;;;;;;;;;;;;;;-4.72;88.18;94198.03;1426864;39;21348;31
2021/03/01 02:17:01;;;;;;;;;;;;;;;-4.77;87.92;94192.94;1422262;39;20242;31
2021/03/01 02:18:15;;;;;;;;;;;;;;;-4.78;88.27;94200.00;1424579;39;21147;31
2021/03/01 02:19:30;;;;;;;;;;;;;;;-4.75;88.15;94199.38;1419225;39;21282;31
2021/03/01 02:20:43;;;;;;;;;;;;;;;-4.71;88.07;94200.34;1424459;39;21285;31
2021/03/01 02:21:57;;;;;;;;;;;;;;;-4.74;88.16;94195.75;1418097;39;20196;31
2021/03/01 02:23:11;;;;;;;;;;;;;;;-4.72;87.69;94201.41;1415478;39;20196;31
2021/03/01 02:24:25;;;;;;;;;;;;;;;-4.61;87.45;94192.31;1423902;39;20595;31
2021/03/01 02:25:39;;;;;;;;;;;;;;;-4.71;87.03;94196.97;1423117;39;21721;31
2021/03/01 02:26:53;;;;;;;;;;;;;;;-4.68;87.84;94191.19;1423839;39;21220;31
2021/03/01 02:28:07;;;;;;;;;;;;;;;-4.69;87.21;94193.03;1428661;39;20199;31
2021/03/01 02:29:21;;;;;;;;;;;;;;;-4.73;86.67;94197.28;1428412;39;20286;31
2021/03/01 02:30:28;;;;;;;;;;;;;;;-4.82;87.04;94194.59;1431821;39;22236;31
2021/03/01 02:33:51;;;;;;;;;;;;;;;-4.70;87.35;94188.84;1449912;39;20292;31
2021/03/01 02:34:57;;;;;;;;;;;;;;;-4.70;86.76;94195.91;1432110;39;20190;31
2021/03/01 02:38:35;;;;;;;;;;;;;;;-4.90;87.69;94190.06;1430232;39;20210;31
2021/03/01 02:39:49;;;;;;;;;;;;;;;-4.82;87.36;94186.75;1422603;39;22199;31
2021/03/01 02:42:47;;;;;;;;;;;;;;;-4.98;88.59;94187.34;1446556;39;20223;31
2021/03/01 02:44:00;;;;;;;;;;;;;;;-4.98;89.16;94182.12;1420589;39;20247;31
2021/03/01 02:45:14;;;;;;;;;;;;;;;-4.99;89.20;94181.38;1426746;39;20718;31
2021/03/01 02:46:28;;;;;;;;;;;;;;;-4.91;89.69;94191.13;1421538;39;20259;31
2021/03/01 02:47:33;;;;;;;;;;;;;;;-4.95;88.92;94184.19;1429805;39;21448;31
2021/03/01 02:50:49;;;;;;;;;;;;;;;-5.03;88.46;94183.00;1430356;39;21377;31
2021/03/01 02:52:03;;;;;;;;;;;;;;;-5.05;88.50;94174.69;1423992;39;21256;31
2021/03/01 02:53:17;;;;;;;;;;;;;;;-5.06;88.95;94181.75;1424084;39;20262;31
2021/03/01 02:54:35;;;;;;;;;;;;;;;-5.09;89.11;94179.75;1430402;39;20278;31
2021/03/01 02:55:42;;;;;;;;;;;;;;;-5.03;90.24;94174.44;1424562;39;22110;31
2021/03/01 02:56:48;;;;;;;;;;;;;;;-4.98;89.29;94182.91;1421572;39;21419;31
2021/03/01 02:57:52;;;;;;;;;;;;;;;-4.91;89.01;94188.50;1420233;39;20335;31
2021/03/01 02:59:05;;;;;;;;;;;;;;;-4.88;88.11;94177.47;1423516;39;20203;31
2021/03/01 03:00:22;;;;;;;;;;;;;;;-4.94;88.37;94185.72;1421649;39;20270;31
2021/03/01 03:01:35;;;;;;;;;;;;;;;-4.96;88.39;94186.00;1428300;39;20397;31
2021/03/01 03:02:49;;;;;;;;;;;;;;;-4.92;87.60;94178.34;1424541;39;20187;31
2021/03/01 03:04:03;;;;;;;;;;;;;;;-4.93;87.73;94180.19;1420865;39;21522;31
2021/03/01 03:05:17;;;;;;;;;;;;;;;-4.90;87.20;94178.84;1433270;39;20190;31
2021/03/01 03:09:18;;;;;;;;;;;;;;;-4.97;87.21;94188.91;1495219;39;20198;31
2021/03/01 03:10:31;;;;;;;;;;;;;;;-4.98;87.69;94184.75;1426948;39;20256;31
2021/03/01 03:15:52;;;;;;;;;;;;;;;-4.98;87.55;94179.53;1319762;39;20217;31
2021/03/01 03:16:58;;;;;;;;;;;;;;;-5.01;87.24;94186.09;1434047;39;20284;31
2021/03/01 03:20:20;;;;;;;;;;;;;;;-5.07;88.14;94175.00;1429208;39;20217;31
2021/03/01 03:21:34;;;;;;;;;;;;;;;-5.07;88.43;94174.22;1420662;39;20299;31
2021/03/01 03:22:39;;;;;;;;;;;;;;;-5.18;88.05;94175.47;1415062;39;20316;31
2021/03/01 03:23:52;;;;;;;;;;;;;;;-5.16;87.75;94179.34;1422362;39;20615;31
2021/03/01 03:26:34;;;;;;;;;;;;;;;-5.18;88.05;94173.69;1476542;39;20192;31
2021/03/01 03:27:50;;;;;;;;;;;;;;;-5.12;88.18;94182.91;1432973;39;21197;31
2021/03/01 03:29:03;;;;;;;;;;;;;;;-5.18;88.67;94178.87;1427500;39;20741;31
2021/03/01 03:30:21;;;;;;;;;;;;;;;-5.20;88.17;94188.03;1426074;39;20255;31
2021/03/01 03:31:35;;;;;;;;;;;;;;;-5.15;87.95;94182.72;1421269;39;21364;31
2021/03/01 03:55:41;;;;;;;;;;;;;;;-5.32;87.48;94178.09;1490346;39;21316;31
2021/03/01 04:17:59;;;;;;;;;;;;;;;-5.43;87.67;94181.97;1473998;39;20258;31
2021/03/01 04:30:20;;;;;;;;;;;;;;;-5.58;88.99;94185.59;1486666;39;20211;31
2021/03/01 04:37:56;;;;;;;;;;;;;;;-5.67;89.53;94193.28;1498943;39;21229;31
2021/03/01 04:43:55;;;;;;;;;;;;;;;-5.54;88.47;94183.19;1486726;39;20214;31
2021/03/01 04:45:02;;;;;;;;;;;;;;;-5.57;88.85;94177.50;1422959;39;21117;31
2021/03/01 04:46:07;;;;;;;;;;;;;;;-5.59;89.24;94187.44;1415332;39;20280;31
2021/03/01 04:48:59;;;;;;;;;;;;;;;-5.58;89.54;94183.75;1495042;39;20259;31
2021/03/01 04:58:17;;;;;;;;;;;;;;;-5.61;88.64;94186.97;1478374;39;20215;31
2021/03/01 05:12:24;;;;;;;;;;;;;;;-5.70;88.67;94191.28;1474211;39;20199;31
2021/03/01 05:37:31;;;;;;;;;;;;;;;-5.75;88.69;94182.78;1478092;39;20208;31
2021/03/01 05:56:48;;;;;;;;;;;;;;;-5.85;87.92;94168.88;1478095;39;20223;31
2021/03/01 06:13:16;;;;;;;;;;;;;;;-5.83;90.34;94182.38;1473917;39;20220;31
2021/03/01 06:21:34;;;;;;;;;;;;;;;-5.68;88.98;94176.13;1473989;39;20551;31
2021/03/01 06:55:26;;;;;;;;;;;;;;;-5.07;89.55;94205.50;1320775;39;22554;31
2021/03/01 07:00:23;;;;;;;;;;;;;;;-4.87;89.98;94206.97;1432267;39;20249;31
2021/03/01 07:01:37;;;;;;;;;;;;;;;-4.79;89.64;94216.69;1412544;39;20246;31
2021/03/01 07:02:51;;;;;;;;;;;;;;;-4.76;88.89;94210.88;1419400;39;20192;31
2021/03/01 07:04:05;;;;;;;;;;;;;;;-4.67;89.10;94209.13;1418036;39;20344;31
2021/03/01 07:05:19;;;;;;;;;;;;;;;-4.55;89.07;94206.03;1423308;39;20220;31
2021/03/01 07:06:33;;;;;;;;;;;;;;;-4.58;88.90;94207.38;1412445;40;20227;31
2021/03/01 07:07:47;;;;;;;;;;;;;;;-4.51;89.88;94206.22;1412831;39;20300;31
2021/03/01 07:09:01;;;;;;;;;;;;;;;-4.44;89.72;94215.16;1423144;39;21259;31
2021/03/01 07:10:15;;;;;;;;;;;;;;;-4.43;89.38;94208.13;1418181;39;20196;31
2021/03/01 07:11:29;;;;;;;;;;;;;;;-4.40;89.58;94221.34;1412256;39;20207;31
2021/03/01 07:12:44;;;;;;;;;;;;;;;-4.38;89.79;94215.84;1421472;39;20191;31
2021/03/01 07:13:58;;;;;;;;;;;;;;;-4.30;90.42;94212.53;1425465;39;21183;31
2021/03/01 07:15:12;;;;;;;;;;;;;;;-4.25;90.97;94220.25;1422229;39;22285;31
2021/03/01 07:16:26;;;;;;;;;;;;;;;-4.15;90.21;94214.03;1424355;39;20303;31
2021/03/01 07:17:40;;;;;;;;;;;;;;;-4.14;90.05;94213.72;1416886;39;20206;31
2021/03/01 07:18:45;;;;;;;;;;;;;;;-4.05;90.23;94216.41;1416610;39;21289;31
2021/03/01 07:22:08;;;;;;;;;;;;;;;-3.97;90.48;94214.94;1447026;39;20230;31
2021/03/01 07:24:26;;;;;;;;;;;;;;;-3.84;91.48;94208.87;1424801;39;20219;31
2021/03/01 07:25:40;;;;;;;;;;;;;;;-3.72;91.16;94211.72;1422775;39;20221;31
2021/03/01 07:26:54;;;;;;;;;;;;;;;-3.58;90.34;94207.19;1415446;39;20232;31
2021/03/01 07:28:08;;;;;;;;;;;;;;;-3.59;89.03;94215.31;1430380;39;20276;31
2021/03/01 07:29:22;;;;;;;;;;;;;;;-3.59;89.81;94208.25;1429824;39;20302;31
2021/03/01 07:30:27;;;;;;;;;;;;;;;-3.50;90.23;94210.91;1426387;39;22688;31
2021/03/01 07:31:41;;;;;;;;;;;;;;;-3.42;90.73;94218.03;1422404;39;20245;31
2021/03/01 07:32:55;;;;;;;;;;;;;;;-3.39;91.68;94211.41;1423229;39;21266;31
2021/03/01 07:34:09;;;;;;;;;;;;;;;-3.38;90.85;94212.94;1415781;39;20317;31
2021/03/01 07:35:23;;;;;;;;;;;;;;;-3.31;90.99;94210.69;1420228;39;20196;31
2021/03/01 07:36:37;;;;;;;;;;;;;;;-3.27;91.47;94216.09;1426943;39;20242;31
2021/03/01 07:37:51;;;;;;;;;;;;;;;-3.22;91.19;94213.34;1430176;39;20209;31
2021/03/01 07:39:05;;;;;;;;;;;;;;;-3.13;90.22;94214.91;1421943;39;20215;31
2021/03/01 07:40:10;;;;;;;;;;;;;;;-3.05;91.26;94214.19;1421000;39;22426;31
2021/03/01 07:43:32;;;;;;;;;;;;;;;-2.91;90.50;94214.06;1443301;39;21275;31
2021/03/01 07:44:47;;;;;;;;;;;;;;;-2.80;90.08;94217.19;1435645;39;21146;31
2021/03/01 07:47:25;;;;;;;;;;;;;;;-2.61;90.84;94209.84;1442192;39;20249;31
2021/03/01 07:49:43;;;;;;;;;;;;;;;-2.52;91.18;94204.62;1421821;39;20235;31
2021/03/01 07:50:57;;;;;;;;;;;;;;;-2.45;91.82;94212.03;1425733;39;20187;31
2021/03/01 07:52:11;;;;;;;;;;;;;;;-2.41;91.06;94208.50;1421192;39;20219;31
2021/03/01 07:53:32;;;;;;;;;;;;;;;-2.38;90.10;94210.47;1425518;39;22648;31
2021/03/01 07:54:50;;;;;;;;;;;;;;;-2.32;90.57;94208.50;1422323;39;23125;31
2021/03/01 07:56:04;;;;;;;;;;;;;;;-2.26;91.14;94204.62;1435113;39;20190;31
2021/03/01 07:57:28;;;;;;;;;;;;;;;-2.12;91.73;94205.25;1419136;39;20262;31
2021/03/01 07:58:42;;;;;;;;;;;;;;;-2.03;92.09;94210.50;1426676;39;21116;31
2021/03/01 08:00:00;;;;;;;;;;;;;;;-1.95;92.00;94209.72;1430160;39;21283;31
2021/03/01 08:02:24;;;;;;;;;;;;;;;-1.78;90.52;94207.09;1433828;39;21355;31
2021/03/01 08:03:39;;;;;;;;;;;;;;;-1.64;90.12;94209.53;1430170;39;21176;31
2021/03/01 08:04:53;;;;;;;;;;;;;;;-1.59;90.84;94203.34;1425371;39;20195;31
2021/03/01 08:05:59;;;;;;;;;;;;;;;-1.43;91.04;94206.25;1440353;39;20281;31
2021/03/01 08:07:04;;;;;;;;;;;;;;;-1.31;91.55;94204.53;1425882;39;20191;31
2021/03/01 08:09:41;;;;;;;;;;;;;;;-1.10;91.19;94209.06;1421444;39;20224;31
2021/03/01 08:10:55;;;;;;;;;;;;;;;-1.04;91.00;94197.31;1414828;40;20204;31
2021/03/01 08:12:09;;;;;;;;;;;;;;;-0.82;90.85;94204.16;1421873;39;20191;31
2021/03/01 08:13:24;;;;;;;;;;;;;;;-0.78;90.60;94199.81;1415348;39;20292;31
2021/03/01 08:14:38;;;;;;;;;;;;;;;-0.65;90.51;94198.06;1430494;39;20667;31
2021/03/01 08:15:52;;;;;;;;;;;;;;;-0.61;90.14;94197.09;1410159;40;20221;31
2021/03/01 08:18:34;;;;;;;;;;;;;;;-0.18;88.03;94190.78;1418119;39;21195;31
2021/03/01 08:19:48;;;;;;;;;;;;;;;-0.11;87.79;94196.28;1416907;39;20666;31
2021/03/01 08:21:02;;;;;;;;;;;;;;;0.02;86.29;94193.72;1421065;39;20206;31
2021/03/01 08:22:17;;;;;;;;;;;;;;;0.06;85.82;94199.88;1430531;39;20206;31
2021/03/01 08:23:31;;;;;;;;;;;;;;;0.19;85.21;94196.97;1427035;39;22243;31
2021/03/01 08:24:46;;;;;;;;;;;;;;;0.24;85.89;94194.16;1422791;39;22417;31
2021/03/01 08:28:23;;;;;;;;;;;;;;;0.39;83.44;94198.03;1432478;39;20191;31
2021/03/01 08:31:05;;;;;;;;;;;;;;;0.56;83.45;94193.69;1437554;39;20209;31
2021/03/01 08:32:13;;;;;;;;;;;;;;;0.62;83.38;94189.78;1430883;39;21165;31
2021/03/01 08:34:37;;;;;;;;;;;;;;;0.78;81.78;94182.75;1433672;39;21121;31
2021/03/01 08:35:42;;;;;;;;;;;;;;;0.92;81.17;94196.41;1417753;39;20308;31
2021/03/01 08:37:51;;;;;;;;;;;;;;;0.98;78.97;94189.81;1434782;39;22410;31
2021/03/01 08:41:12;;;;;;;;;;;;;;;1.25;78.80;94190.25;1443453;39;20288;31
2021/03/01 08:45:16;;;;;;;;;;;;;;;1.41;79.00;94195.66;1499961;39;20462;31
2021/03/01 08:46:30;;;;;;;;;;;;;;;1.42;78.96;94199.81;1436068;39;20255;31
2021/03/01 08:47:34;;;;;;;;;;;;;;;1.55;76.22;94203.19;1421556;39;20269;31
2021/03/01 08:48:51;;;;;;;;;;;;;;;1.51;76.60;94193.31;1419259;39;20267;31
2021/03/01 08:50:04;;;;;;;;;;;;;;;1.58;77.38;94197.25;1427452;39;20335;31
2021/03/01 08:54:03;;;;;;;;;;;;;;;1.77;78.53;94192.19;1427056;39;21667;31
2021/03/01 08:55:08;;;;;;;;;;;;;;;1.91;75.03;94191.81;1440318;39;22440;31
2021/03/01 09:04:53;;;;;;;;;;;;;;;2.45;71.55;94192.16;1486493;39;20272;31
2021/03/01 09:06:08;;;;;;;;;;;;;;;2.56;72.77;94183.75;1415918;39;21118;31
2021/03/01 09:07:25;;;;;;;;;;;;;;;2.45;72.36;94197.44;1421828;39;21182;31
2021/03/01 09:08:39;;;;;;;;;;;;;;;2.52;72.04;94192.34;1427496;39;21091;31
2021/03/01 09:14:47;;;;;;;;;;;;;;;3.00;70.89;94179.19;1473705;39;20208;31
2021/03/01 09:28:56;;;;;;;;;;;;;;;3.54;67.72;94179.31;1491091;39;20613;31
2021/03/01 09:33:26;;;;;;;;;;;;;;;3.87;66.61;94169.44;1480372;39;20208;31
2021/03/01 09:34:40;;;;;;;;;;;;;;;3.79;67.00;94176.44;1426321;39;20206;31
2021/03/01 09:37:11;;;;;;;;;;;;;;;3.93;65.17;94173.31;1488013;39;22051;31
2021/03/01 09:44:06;;;;;;;;;;;;;;;4.13;66.21;94174.88;1392706;39;20174;-83
2021/03/01 09:45:10;;;;;;;;;;;;;;;4.23;66.70;94178.84;1177755;39;21164;31
2021/03/01 09:46:23;;;;;;;;;;;;;;;4.08;67.18;94174.34;1431664;39;20226;31
2021/03/01 09:47:27;;;;;;;;;;;;;;;4.10;67.02;94180.84;1444697;39;21077;31
2021/03/01 09:48:32;;;;;;;;;;;;;;;4.19;65.59;94172.69;1163622;39;20227;31
2021/03/01 09:49:34;;;;;;;;;;;;;;;4.09;67.62;94183.84;1050421;49;21458;-84
2021/03/01 09:50:37;;;;;;;;;;;;;;;4.15;66.38;94182.44;1046265;56;20184;-85
2021/03/01 09:52:44;;;;;;;;;;;;;;;4.25;66.38;94180.00;1442981;39;20194;31
2021/03/01 09:54:01;;;;;;;;;;;;;;;4.19;66.63;94183.28;1395397;39;20190;31
2021/03/01 09:55:33;;;;;;;;;;;;;;;4.15;64.93;94174.50;1432139;39;21942;31
2021/03/01 09:56:47;;;;;;;;;;;;;;;4.12;66.06;94183.91;1417370;39;20266;31
2021/03/01 09:58:01;;;;;;;;;;;;;;;4.18;65.83;94181.75;1426463;39;20339;31
2021/03/01 09:59:15;;;;;;;;;;;;;;;4.07;65.13;94172.84;1425563;39;21226;31
2021/03/01 10:00:30;;;;;;;;;;;;;;;4.27;65.27;94172.50;1412892;39;20580;31
2021/03/01 10:03:04;;;;;;;;;;;;;;;4.43;63.61;94174.28;1198541;39;20277;-85
2021/03/01 10:04:05;;;;;;;;;;;;;;;4.44;65.04;94179.25;1058392;48;21111;-85
2021/03/01 10:05:11;;;;;;;;;;;;;;;4.58;64.95;94170.03;1050380;56;20207;-85
2021/03/01 10:07:19;;;;;;;;;;;;;;;4.53;64.10;94169.19;1202070;39;20168;31
2021/03/01 10:09:31;;;;;;;;;;;;;;;4.38;63.39;94172.69;1222263;39;20554;31
2021/03/01 10:10:33;;;;;;;;;;;;;;;4.45;62.84;94161.47;1055233;48;20260;-85
2021/03/01 10:11:33;;;;;;;;;;;;;;;4.36;65.04;94166.97;1050700;56;20176;-83
2021/03/01 10:12:42;;;;;;;;;;;;;;;4.42;64.65;94170.87;1050569;56;20745;-84
2021/03/01 10:13:42;;;;;;;;;;;;;;;4.52;64.28;94167.66;1050239;56;20141;-85
2021/03/01 10:15:47;;;;;;;;;;;;;;;4.65;63.11;94162.94;1054365;48;20204;-86
2021/03/01 10:16:48;;;;;;;;;;;;;;;4.66;63.83;94161.84;1051862;56;20148;-84
2021/03/01 10:19:08;;;;;;;;;;;;;;;4.70;64.56;94167.22;1431781;39;20237;31
2021/03/01 10:22:21;;;;;;;;;;;;;;;5.02;62.31;94165.88;1446191;39;22393;31
2021/03/01 10:23:28;;;;;;;;;;;;;;;5.11;62.33;94159.56;1434274;39;20246;31
2021/03/01 10:24:41;;;;;;;;;;;;;;;5.08;63.49;94166.31;1416045;39;20525;31
2021/03/01 10:25:44;;;;;;;;;;;;;;;5.16;61.90;94161.91;1426938;39;21096;31
2021/03/01 10:27:52;;;;;;;;;;;;;;;5.23;62.37;94162.78;1438329;39;22162;31
2021/03/01 10:29:06;;;;;;;;;;;;;;;5.35;61.55;94166.34;1432435;39;20242;31
2021/03/01 10:32:37;;;;;;;;;;;;;;;5.42;63.15;94161.16;1427239;39;21275;31
2021/03/01 10:33:52;;;;;;;;;;;;;;;5.50;61.86;94170.75;1427503;39;20483;31
2021/03/01 10:35:05;;;;;;;;;;;;;;;5.46;61.83;94164.63;1431784;39;20317;31
2021/03/01 10:36:19;;;;;;;;;;;;;;;5.51;62.07;94167.75;1425212;39;20359;31
2021/03/01 10:37:26;;;;;;;;;;;;;;;5.62;61.41;94153.84;1430031;39;21192;31
2021/03/01 10:38:47;;;;;;;;;;;;;;;5.74;61.60;94165.03;1424796;39;21080;31
2021/03/01 10:40:55;;;;;;;;;;;;;;;5.69;61.15;94161.94;1424087;39;20550;31
2021/03/01 10:42:13;;;;;;;;;;;;;;;5.77;61.32;94163.56;1430488;39;21700;31
2021/03/01 10:43:16;;;;;;;;;;;;;;;5.71;61.34;94160.47;1418614;39;20292;31
2021/03/01 10:44:30;;;;;;;;;;;;;;;5.77;61.20;94168.84;1422791;39;20223;31
2021/03/01 10:45:41;;;;;;;;;;;;;;;5.94;60.13;94159.62;1433199;39;20565;31
2021/03/01 10:46:49;;;;;;;;;;;;;;;5.90;61.37;94164.88;1419889;39;20218;31
2021/03/01 10:48:00;;;;;;;;;;;;;;;5.87;61.38;94159.50;1431181;39;20647;31
2021/03/01 10:49:13;;;;;;;;;;;;;;;5.98;60.90;94163.88;1418294;39;21137;31
2021/03/01 10:51:29;;;;;;;;;;;;;;;6.02;59.34;94162.03;1431810;39;20327;31
2021/03/01 10:52:35;;;;;;;;;;;;;;;6.22;59.43;94159.22;1430689;39;20615;31
2021/03/01 10:54:44;;;;;;;;;;;;;;;6.16;59.54;94158.78;1443226;39;20250;31
2021/03/01 10:55:58;;;;;;;;;;;;;;;6.17;59.48;94156.88;1433832;39;20289;31
2021/03/01 10:57:12;;;;;;;;;;;;;;;6.33;57.76;94160.09;1423274;39;20230;31
2021/03/01 10:58:17;;;;;;;;;;;;;;;6.39;58.82;94157.88;1423310;39;20191;31
2021/03/01 10:59:21;;;;;;;;;;;;;;;6.31;60.39;94157.78;1431900;39;22811;31
2021/03/01 11:00:34;;;;;;;;;;;;;;;6.33;60.21;94151.38;1420815;39;20187;31
2021/03/01 11:01:40;;;;;;;;;;;;;;;6.26;57.71;94158.12;1418906;39;20285;31
2021/03/01 11:02:44;;;;;;;;;;;;;;;6.30;58.83;94158.16;1413256;40;21296;31
2021/03/01 11:03:48;;;;;;;;;;;;;;;6.42;58.11;94155.28;1426380;39;21306;31
2021/03/01 11:04:53;;;;;;;;;;;;;;;6.42;59.61;94162.47;1426840;39;20284;31
2021/03/01 11:05:56;;;;;;;;;;;;;;;6.49;58.65;94160.66;1422645;39;21125;31
2021/03/01 11:07:10;;;;;;;;;;;;;;;6.55;58.42;94163.75;1412127;40;21398;31
2021/03/01 11:08:12;;;;;;;;;;;;;;;6.50;59.07;94161.44;1204065;39;20188;31
2021/03/01 11:09:18;;;;;;;;;;;;;;;6.53;57.26;94158.78;1423739;39;20349;31
2021/03/01 11:10:31;;;;;;;;;;;;;;;6.42;58.27;94159.81;1425503;39;20323;31
2021/03/01 11:11:36;;;;;;;;;;;;;;;6.63;58.69;94159.25;1424916;39;20207;31
2021/03/01 11:14:46;;;;;;;;;;;;;;;6.65;59.29;94159.69;1449705;39;21095;31
2021/03/01 11:16:00;;;;;;;;;;;;;;;6.73;58.19;94158.62;1429064;39;20097;31
2021/03/01 11:17:01;;;;;;;;;;;;;;;6.84;58.23;94161.38;1046062;49;20166;-87
2021/03/01 11:18:02;;;;;;;;;;;;;;;6.83;57.96;94165.91;1044973;57;20161;-88
2021/03/01 11:20:07;;;;;;;;;;;;;;;6.83;57.77;94163.25;1055003;48;20197;-85
2021/03/01 11:21:07;;;;;;;;;;;;;;;6.81;58.81;94162.87;1049767;56;20185;-87
2021/03/01 11:22:08;;;;;;;;;;;;;;;7.08;57.10;94160.84;1048773;56;20136;-86
2021/03/01 11:23:08;;;;;;;;;;;;;;;7.15;55.26;94166.19;1046546;56;20222;-88
2021/03/01 11:24:09;;;;;;;;;;;;;;;7.16;54.65;94164.31;1048770;56;20117;-88
2021/03/01 11:25:09;;;;;;;;;;;;;;;6.96;56.88;94167.19;1047634;57;20261;-86
2021/03/01 11:26:10;;;;;;;;;;;;;;;7.07;57.75;94161.97;1050859;56;20226;-86
2021/03/01 11:27:10;;;;;;;;;;;;;;;7.09;57.30;94156.28;1044412;57;20134;-85
2021/03/01 11:28:11;;;;;;;;;;;;;;;7.06;57.99;94158.53;1046377;57;20177;-87
2021/03/01 11:29:11;;;;;;;;;;;;;;;7.02;56.60;94160.41;1044551;57;20178;-86
2021/03/01 11:30:12;;;;;;;;;;;;;;;7.31;57.34;94152.66;1044003;57;20211;-88
2021/03/01 11:31:13;;;;;;;;;;;;;;;7.33;56.79;94155.69;1046671;57;20137;-86
2021/03/01 11:32:13;;;;;;;;;;;;;;;7.24;57.62;94158.69;1048801;56;20125;-88
2021/03/01 11:33:13;;;;;;;;;;;;;;;7.21;57.69;94148.78;1046859;56;20133;-86
2021/03/01 11:34:14;;;;;;;;;;;;;;;7.10;57.51;94147.16;1043336;57;20220;-87
2021/03/01 11:35:15;;;;;;;;;;;;;;;7.05;58.15;94149.03;1047588;57;20205;-85
2021/03/01 11:36:15;;;;;;;;;;;;;;;7.02;58.20;94147.13;1051612;56;21163;-88
2021/03/01 11:37:16;;;;;;;;;;;;;;;7.03;57.26;94150.53;1052648;56;20141;-87